createdAt,value
2019-02-24T00:01:51.696Z,8.48
2019-02-24T00:04:20.987Z,8.78
2019-02-24T00:06:50.086Z,7.67
2019-02-24T00:09:19.181Z,7.87
2019-02-24T00:11:48.470Z,7.35
2019-02-24T00:14:17.720Z,7.33
2019-02-24T00:16:46.782Z,6.20
2019-02-24T00:19:15.900Z,5.85
2019-02-24T00:21:44.976Z,6.53
2019-02-24T00:24:14.087Z,8.10
2019-02-24T00:26:43.344Z,9.45
2019-02-24T00:29:12.349Z,9.08
2019-02-24T00:31:41.367Z,9.58
2019-02-24T00:34:10.482Z,9.95
2019-02-24T00:36:39.545Z,9.93
2019-02-24T00:39:08.639Z,10.70
2019-02-24T00:41:37.946Z,10.75
2019-02-24T00:44:07.051Z,10.20
2019-02-24T00:46:36.840Z,8.48
2019-02-24T00:49:06.159Z,8.75
2019-02-24T00:51:35.261Z,8.85
2019-02-24T00:54:04.344Z,8.18
2019-02-24T00:56:33.569Z,8.05
2019-02-24T00:59:02.684Z,7.35
2019-02-24T01:01:31.886Z,6.92
2019-02-24T01:04:01.028Z,7.42
2019-02-24T01:06:30.139Z,7.05
2019-02-24T01:08:59.231Z,6.90
2019-02-24T01:11:28.371Z,6.85
2019-02-24T01:13:58.046Z,6.75
2019-02-24T01:16:27.137Z,6.85
2019-02-24T01:18:56.201Z,6.08
2019-02-24T01:21:25.480Z,6.35
2019-02-24T01:23:55.021Z,7.05
2019-02-24T01:26:24.163Z,6.58
2019-02-24T01:28:53.230Z,6.72
2019-02-24T01:31:22.332Z,6.47
2019-02-24T01:33:51.443Z,5.87
2019-02-24T01:36:21.133Z,5.80
2019-02-24T01:38:50.208Z,10.13
2019-02-24T01:41:19.370Z,6.35
2019-02-24T01:43:48.410Z,5.92
2019-02-24T01:46:17.515Z,5.78
2019-02-24T01:48:47.385Z,5.60
2019-02-24T01:51:16.465Z,5.35
2019-02-24T01:53:45.529Z,5.50
2019-02-24T01:56:14.737Z,5.92
2019-02-24T01:58:43.969Z,4.50
2019-02-24T02:01:13.018Z,4.80
2019-02-24T02:03:42.127Z,5.95
2019-02-24T02:06:11.305Z,5.65
2019-02-24T02:08:40.531Z,5.50
2019-02-24T02:11:10.060Z,5.53
2019-02-24T02:13:39.372Z,5.58
2019-02-24T02:16:08.819Z,5.28
2019-02-24T02:18:38.236Z,5.45
2019-02-24T02:21:07.372Z,5.50
2019-02-24T02:23:36.576Z,5.35
2019-02-24T02:26:05.833Z,5.17
2019-02-24T02:28:43.619Z,5.00
2019-02-24T02:31:04.342Z,5.05
2019-02-24T02:33:33.427Z,4.85
2019-02-24T02:36:02.501Z,4.72
2019-02-24T02:38:31.635Z,4.97
2019-02-24T02:41:00.695Z,4.78
2019-02-24T02:43:29.959Z,4.72
2019-02-24T02:45:59.622Z,5.33
2019-02-24T02:48:28.790Z,5.25
2019-02-24T02:50:58.636Z,5.28
2019-02-24T02:53:27.769Z,4.90
2019-02-24T02:55:56.912Z,4.90
2019-02-24T02:58:25.959Z,5.42
2019-02-24T03:00:55.034Z,5.10
2019-02-24T03:03:24.122Z,5.03
2019-02-24T03:05:59.256Z,7.65
2019-02-24T03:08:59.890Z,5.15
2019-02-24T03:11:28.990Z,4.60
2019-02-24T03:13:58.069Z,5.15
2019-02-24T03:16:28.353Z,4.70
2019-02-24T03:18:57.364Z,5.12
2019-02-24T03:21:26.486Z,4.70
2019-02-24T03:23:55.594Z,4.85
2019-02-24T03:26:25.528Z,5.05
2019-02-24T03:29:03.625Z,5.05
2019-02-24T03:31:23.792Z,4.90
2019-02-24T03:33:53.554Z,4.80
2019-02-24T03:36:22.599Z,4.97
2019-02-24T03:38:51.699Z,4.87
2019-02-24T03:41:20.804Z,4.37
2019-02-24T03:43:49.880Z,4.70
2019-02-24T03:46:19.623Z,5.28
2019-02-24T03:48:48.800Z,5.08
2019-02-24T03:51:17.901Z,5.20
2019-02-24T03:53:47.923Z,4.97
2019-02-24T03:56:17.165Z,5.03
2019-02-24T03:58:46.348Z,17.65
2019-02-24T04:01:15.613Z,17.23
2019-02-24T04:03:44.724Z,5.50
2019-02-24T04:06:13.777Z,4.70
2019-02-24T04:08:42.915Z,5.10
2019-02-24T04:11:12.108Z,4.75
2019-02-24T04:13:41.165Z,5.17
2019-02-24T04:16:10.417Z,4.85
2019-02-24T04:18:39.478Z,5.10
2019-02-24T04:21:08.596Z,4.95
2019-02-24T04:23:37.661Z,4.83
2019-02-24T04:26:06.930Z,4.62
2019-02-24T04:28:36.004Z,4.83
2019-02-24T04:31:05.066Z,5.20
2019-02-24T04:33:34.176Z,4.90
2019-02-24T04:36:03.276Z,5.70
2019-02-24T04:38:32.253Z,6.10
2019-02-24T04:41:01.331Z,5.85
2019-02-24T04:43:30.452Z,8.90
2019-02-24T04:45:59.552Z,8.70
2019-02-24T04:48:28.637Z,7.95
2019-02-24T04:50:58.021Z,8.20
2019-02-24T04:53:27.146Z,6.67
2019-02-24T04:55:56.125Z,6.67
2019-02-24T04:58:24.984Z,7.37
2019-02-24T05:00:54.417Z,6.75
2019-02-24T05:03:24.258Z,7.87
2019-02-24T05:05:53.257Z,14.73
2019-02-24T05:08:22.360Z,14.68
2019-02-24T05:10:51.608Z,14.78
2019-02-24T05:13:21.336Z,17.57
2019-02-24T05:15:50.427Z,18.42
2019-02-24T05:18:19.519Z,15.53
2019-02-24T05:20:48.670Z,13.18
2019-02-24T05:23:17.868Z,12.40
2019-02-24T05:25:46.911Z,11.73
2019-02-24T05:28:16.040Z,11.73
2019-02-24T05:30:45.167Z,11.68
2019-02-24T05:33:14.393Z,10.90
2019-02-24T05:35:43.512Z,11.15
2019-02-24T05:38:12.604Z,10.53
2019-02-24T05:40:41.690Z,10.08
2019-02-24T05:43:10.882Z,10.38
2019-02-24T05:45:40.004Z,10.70
2019-02-24T05:48:09.106Z,10.78
2019-02-24T05:50:38.170Z,10.53
2019-02-24T05:53:07.341Z,10.28
2019-02-24T05:55:37.147Z,10.53
2019-02-24T05:58:06.416Z,10.85
2019-02-24T06:00:35.498Z,12.07
2019-02-24T06:03:04.600Z,12.40
2019-02-24T06:05:33.898Z,12.93
2019-02-24T06:08:02.990Z,12.53
2019-02-24T06:10:32.328Z,12.30
2019-02-24T06:13:01.451Z,12.43
2019-02-24T06:15:30.569Z,12.40
2019-02-24T06:17:59.793Z,12.18
2019-02-24T06:20:29.004Z,12.85
2019-02-24T06:22:58.872Z,14.25
2019-02-24T06:25:28.000Z,13.58
2019-02-24T06:27:57.215Z,14.90
2019-02-24T06:30:26.266Z,14.63
2019-02-24T06:32:55.373Z,13.75
2019-02-24T06:35:24.500Z,11.45
2019-02-24T06:37:53.604Z,9.35
2019-02-24T06:40:23.311Z,8.48
2019-02-24T07:03:36.022Z,5.37
2019-02-24T07:06:05.139Z,5.22
2019-02-24T07:08:34.228Z,13.68
2019-02-24T07:11:03.864Z,12.58
2019-02-24T07:13:32.878Z,6.90
2019-02-24T07:16:02.035Z,6.50
2019-02-24T07:18:31.434Z,5.72
2019-02-24T07:37:46.414Z,34.38
2019-02-24T07:40:15.520Z,42.65
2019-02-24T07:42:44.654Z,7.35
2019-02-24T07:45:13.720Z,6.50
2019-02-24T07:47:42.820Z,6.05
2019-02-24T07:50:11.953Z,5.72
2019-02-24T07:52:40.993Z,6.62
2019-02-24T07:55:10.112Z,5.90
2019-02-24T07:57:39.211Z,6.12
2019-02-24T08:00:08.524Z,6.05
2019-02-24T08:02:37.596Z,5.62
2019-02-24T08:05:07.242Z,5.35
2019-02-24T08:07:36.292Z,5.65
2019-02-24T08:10:06.254Z,15.55
2019-02-24T08:12:35.348Z,8.35
2019-02-24T08:15:04.641Z,6.00
2019-02-24T08:17:33.694Z,6.03
2019-02-24T08:20:03.714Z,6.35
2019-02-24T08:22:32.851Z,5.80
2019-02-24T08:25:01.817Z,5.85
2019-02-24T08:27:31.120Z,6.08
2019-02-24T08:30:02.371Z,8.23
2019-02-24T08:32:35.721Z,6.60
2019-02-24T08:35:05.012Z,6.20
2019-02-24T08:37:34.194Z,6.17
2019-02-24T08:40:03.287Z,5.60
2019-02-24T08:42:32.923Z,7.47
2019-02-24T09:01:48.537Z,5.40
2019-02-24T09:04:17.881Z,5.87
2019-02-24T09:06:47.471Z,6.83
2019-02-24T09:09:16.749Z,6.40
2019-02-24T09:11:45.916Z,5.90
2019-02-24T09:14:14.856Z,5.92
2019-02-24T09:16:43.944Z,6.17
2019-02-24T09:19:13.252Z,5.40
2019-02-24T09:21:42.415Z,5.55
2019-02-24T09:24:11.916Z,5.87
2019-02-24T09:26:41.344Z,7.12
2019-02-24T09:29:12.033Z,5.87
2019-02-24T09:31:41.055Z,5.78
2019-02-24T09:34:10.352Z,5.83
2019-02-24T09:36:39.487Z,6.72
2019-02-24T09:39:08.744Z,6.40
2019-02-24T09:41:37.813Z,5.60
2019-02-24T09:44:07.336Z,6.37
2019-02-24T09:46:36.399Z,6.12
2019-02-24T09:49:05.525Z,7.67
2019-02-24T09:51:34.610Z,34.13
2019-02-24T09:54:03.736Z,6.05
2019-02-24T09:56:32.800Z,5.62
2019-02-24T09:59:02.480Z,5.70
2019-02-24T10:01:31.573Z,6.17
2019-02-24T10:04:00.572Z,6.00
2019-02-24T10:06:29.651Z,6.70
2019-02-24T10:08:58.743Z,5.50
2019-02-24T10:11:27.880Z,19.60
2019-02-24T10:13:56.960Z,5.62
2019-02-24T10:16:26.070Z,4.92
2019-02-24T10:18:55.170Z,5.17
2019-02-24T10:21:24.986Z,4.90
2019-02-24T10:23:54.044Z,4.53
2019-02-24T10:26:23.348Z,4.45
2019-02-24T10:28:52.643Z,4.15
2019-02-24T10:31:21.859Z,3.05
2019-02-24T10:33:50.883Z,3.60
2019-02-24T10:36:19.853Z,3.92
2019-02-24T10:38:49.571Z,3.60
2019-02-24T10:41:18.736Z,4.20
2019-02-24T10:43:47.683Z,3.83
2019-02-24T10:46:16.786Z,3.60
2019-02-24T10:48:45.695Z,2.75
2019-02-24T10:51:15.144Z,2.47
2019-02-24T10:53:44.893Z,3.55
2019-02-24T10:56:13.945Z,3.87
2019-02-24T10:58:42.792Z,7.28
2019-02-24T11:01:12.010Z,14.47
2019-02-24T11:03:41.087Z,4.42
2019-02-24T11:06:10.131Z,4.60
2019-02-24T11:08:39.253Z,4.15
2019-02-24T11:11:08.997Z,4.90
2019-02-24T11:30:23.525Z,5.50
2019-02-24T11:49:38.076Z,5.20
2019-02-24T11:52:07.244Z,5.53
2019-02-24T11:54:36.271Z,5.90
2019-02-24T11:57:05.363Z,5.70
2019-02-24T11:59:34.507Z,5.70
2019-02-24T12:02:03.594Z,6.12
2019-02-24T12:04:32.714Z,5.67
2019-02-24T12:07:01.966Z,5.70
2019-02-24T12:09:31.177Z,5.45
2019-02-24T12:12:00.169Z,5.95
2019-02-24T12:14:29.535Z,5.53
2019-02-24T12:16:58.660Z,5.85
2019-02-24T12:36:13.148Z,6.45
2019-02-24T12:38:42.255Z,6.85
2019-02-24T12:41:11.569Z,6.83
2019-02-24T12:43:41.429Z,6.75
2019-02-24T13:02:55.499Z,6.53
2019-02-24T13:05:24.635Z,6.15
2019-02-24T13:07:53.700Z,6.60
2019-02-24T13:10:23.582Z,7.72
2019-02-24T13:12:52.770Z,8.10
2019-02-24T13:15:21.836Z,7.50
2019-02-24T13:17:50.719Z,8.13
2019-02-24T13:20:19.793Z,15.63
2019-02-24T13:22:49.012Z,27.07
2019-02-24T13:25:17.950Z,10.88
2019-02-24T13:27:47.115Z,8.90
2019-02-24T13:30:16.548Z,10.72
2019-02-24T13:32:45.774Z,7.45
2019-02-24T13:35:14.900Z,10.10
2019-02-24T13:37:43.988Z,6.87
2019-02-24T13:40:13.110Z,11.55
2019-02-24T13:42:42.258Z,12.95
2019-02-24T13:45:13.034Z,9.35
2019-02-24T13:47:42.325Z,9.30
2019-02-24T13:50:12.301Z,9.13
2019-02-24T13:52:41.511Z,7.25
2019-02-24T13:55:11.227Z,7.58
2019-02-24T13:57:40.409Z,9.00
2019-02-24T14:00:12.633Z,12.13
2019-02-24T14:02:41.698Z,10.38
2019-02-24T14:05:10.910Z,11.33
2019-02-24T14:07:40.015Z,13.62
2019-02-24T14:10:09.922Z,57.38
2019-02-24T14:12:39.049Z,23.90
2019-02-24T14:15:08.361Z,13.48
2019-02-24T14:17:38.112Z,9.65
2019-02-24T14:20:08.446Z,11.00
2019-02-24T14:22:37.528Z,12.13
2019-02-24T14:25:06.994Z,11.43
2019-02-24T14:27:36.219Z,8.58
2019-02-24T14:30:07.574Z,10.43
2019-02-24T14:32:35.271Z,8.63
2019-02-24T14:35:04.573Z,8.85
2019-02-24T14:37:34.227Z,7.87
2019-02-24T14:40:03.614Z,7.37
2019-02-24T14:42:33.826Z,7.80
2019-02-24T14:45:02.731Z,8.00
2019-02-24T15:07:40.398Z,8.33
2019-02-24T15:10:11.578Z,8.30
2019-02-24T15:12:40.852Z,8.20
2019-02-24T15:15:12.247Z,8.95
2019-02-24T15:17:41.247Z,10.95
2019-02-24T15:20:11.800Z,13.10
2019-02-24T15:22:40.842Z,13.68
2019-02-24T15:25:11.312Z,11.88
2019-02-24T15:27:40.455Z,10.80
2019-02-24T15:30:14.147Z,11.10
2019-02-24T15:32:51.387Z,12.37
2019-02-24T15:35:12.483Z,10.38
2019-02-24T15:37:41.587Z,8.95
2019-02-24T15:40:10.836Z,12.40
2019-02-24T15:42:40.152Z,10.63
2019-02-24T15:45:09.666Z,11.35
2019-02-24T15:47:38.829Z,10.43
2019-02-24T15:50:07.980Z,8.73
2019-02-24T15:52:37.108Z,9.23
2019-02-24T15:55:06.368Z,8.23
2019-02-24T15:57:35.648Z,8.20
2019-02-24T16:00:05.889Z,8.48
2019-02-24T16:02:35.026Z,9.95
2019-02-24T16:05:03.991Z,29.92
2019-02-24T16:24:19.128Z,10.93
2019-02-24T16:26:48.635Z,11.33
2019-02-24T16:29:17.771Z,11.10
2019-02-24T16:31:46.783Z,10.13
2019-02-24T16:34:16.648Z,10.53
2019-02-24T16:36:45.749Z,11.08
2019-02-24T16:39:14.798Z,11.48
2019-02-24T16:41:43.961Z,12.80
2019-02-24T16:44:12.959Z,105.55
2019-02-24T16:46:42.054Z,29.60
2019-02-24T16:49:11.165Z,14.50
2019-02-24T16:51:40.239Z,11.33
2019-02-24T16:54:09.330Z,11.90
2019-02-24T17:13:25.155Z,15.25
2019-02-24T17:15:55.043Z,12.05
2019-02-24T17:18:24.161Z,12.33
2019-02-24T17:20:53.068Z,13.38
2019-02-24T17:23:22.163Z,15.90
2019-02-24T17:25:52.992Z,12.60
2019-02-24T17:28:20.532Z,13.22
2019-02-24T17:30:49.523Z,14.78
2019-02-24T17:33:18.704Z,15.55
2019-02-24T17:35:47.808Z,41.33
2019-02-24T17:38:16.826Z,17.77
2019-02-24T17:40:46.105Z,33.08
2019-02-24T17:43:15.120Z,15.18
2019-02-24T17:45:44.949Z,12.82
2019-02-24T17:48:14.018Z,13.53
2019-02-24T17:50:43.339Z,15.93
2019-02-24T17:53:13.017Z,15.32
2019-02-24T17:55:42.314Z,24.70
2019-02-24T17:58:11.383Z,16.40
2019-02-24T18:00:45.907Z,14.15
2019-02-24T18:03:14.971Z,16.02
2019-02-24T18:05:44.041Z,12.53
2019-02-24T18:25:03.172Z,16.07
2019-02-24T18:44:12.460Z,15.85
2019-02-24T18:46:42.182Z,21.52
2019-02-24T18:49:11.174Z,19.52
2019-02-24T18:51:40.155Z,25.50
2019-02-24T18:54:09.263Z,50.40
2019-02-24T18:56:38.140Z,28.62
2019-02-24T18:59:07.271Z,19.17
2019-02-24T19:01:36.388Z,12.75
2019-02-24T19:04:05.440Z,13.55
2019-02-24T19:06:39.089Z,20.00
2019-02-24T19:09:04.348Z,18.20
2019-02-24T19:28:18.215Z,13.00
2019-02-24T19:30:47.224Z,12.90
2019-02-24T19:33:16.341Z,28.40
2019-02-24T19:35:45.417Z,36.05
2019-02-24T19:38:14.378Z,28.98
2019-02-24T19:57:29.374Z,12.18
2019-02-24T19:59:58.413Z,19.30
2019-02-24T20:02:27.515Z,13.80
2019-02-24T20:04:56.714Z,13.13
2019-02-24T20:07:25.887Z,25.50
2019-02-24T20:09:55.101Z,14.58
2019-02-24T20:12:24.150Z,12.45
2019-02-24T20:14:53.561Z,16.17
2019-02-24T20:17:22.651Z,22.25
2019-02-24T20:19:51.751Z,15.00
2019-02-24T20:22:20.883Z,12.90
2019-02-24T20:24:49.964Z,11.68
2019-02-24T20:27:19.876Z,20.52
2019-02-24T20:29:49.496Z,21.10
2019-02-24T20:32:18.607Z,23.70
2019-02-24T20:34:47.655Z,27.02
2019-02-24T20:37:17.087Z,15.83
2019-02-24T20:39:46.163Z,31.25
2019-02-24T20:59:00.781Z,21.87
2019-02-24T21:01:30.178Z,16.97
2019-02-24T21:03:59.129Z,16.30
2019-02-24T21:06:28.227Z,19.32
2019-02-24T21:25:42.753Z,15.43
2019-02-24T21:28:12.020Z,16.37
2019-02-24T21:30:41.109Z,16.17
2019-02-24T21:33:10.233Z,15.20
2019-02-24T21:35:39.512Z,16.97
2019-02-24T21:38:08.583Z,17.37
2019-02-24T21:40:37.680Z,19.67
2019-02-24T21:43:06.819Z,28.17
2019-02-24T21:45:35.887Z,25.50
2019-02-24T21:48:05.851Z,27.77
2019-02-24T21:50:35.007Z,20.15
2019-02-24T21:53:04.713Z,21.17
2019-02-24T21:55:33.807Z,17.48
2019-02-24T21:58:04.353Z,19.17
2019-02-24T22:00:31.999Z,19.10
2019-02-24T22:03:01.131Z,19.10
2019-02-24T22:05:30.307Z,18.65
2019-02-24T22:07:59.377Z,18.02
2019-02-24T22:10:28.363Z,17.70
2019-02-24T22:12:59.387Z,22.85
2019-02-24T22:15:26.645Z,19.98
2019-02-24T22:17:56.399Z,19.82
2019-02-24T22:20:25.509Z,23.25
2019-02-24T22:22:54.676Z,19.48
2019-02-24T22:25:23.752Z,18.42
2019-02-24T22:27:52.848Z,19.40
2019-02-24T22:30:21.983Z,21.70
2019-02-24T22:32:51.198Z,22.67
2019-02-24T22:35:20.183Z,27.45
2019-02-24T22:37:49.316Z,31.57
2019-02-24T22:40:18.404Z,51.48
2019-02-24T22:42:47.649Z,113.35
2019-02-24T22:45:17.296Z,101.47
2019-02-24T22:47:46.295Z,88.95
2019-02-24T22:50:15.477Z,83.67
2019-02-24T22:52:44.592Z,81.42
2019-02-24T22:55:13.724Z,69.92
2019-02-24T22:57:43.087Z,58.10
2019-02-24T23:00:20.624Z,55.33
2019-02-24T23:02:49.797Z,45.35
2019-02-24T23:05:18.819Z,42.70
2019-02-24T23:07:49.813Z,47.13
2019-02-24T23:10:17.437Z,45.65
2019-02-24T23:12:46.517Z,47.17
2019-02-24T23:15:15.654Z,44.38
2019-02-24T23:17:45.931Z,42.43
2019-02-24T23:20:15.138Z,42.33
2019-02-24T23:22:44.155Z,40.98
2019-02-24T23:25:13.427Z,42.70
2019-02-24T23:27:42.528Z,39.25
2019-02-24T23:30:11.652Z,38.40
2019-02-24T23:32:41.491Z,37.45
2019-02-24T23:35:11.246Z,38.23
2019-02-24T23:37:40.379Z,37.93
2019-02-24T23:40:09.411Z,38.65
2019-02-24T23:42:38.495Z,38.08
2019-02-24T23:45:10.641Z,38.53
2019-02-24T23:47:36.888Z,37.85
2019-02-24T23:50:06.035Z,38.90
2019-02-24T23:52:35.132Z,40.17
2019-02-24T23:55:04.935Z,49.23
